createdAt,value
2022-10-05T00:02:55.802Z,7.32
2022-10-05T00:05:58.067Z,7.06
2022-10-05T00:09:01.211Z,7.06
2022-10-05T00:12:26.091Z,7.11
2022-10-05T00:15:29.336Z,7.27
2022-10-05T00:18:32.812Z,7.32
2022-10-05T00:21:35.042Z,7.39
2022-10-05T00:24:37.961Z,7.39
2022-10-05T00:27:41.407Z,7.27
2022-10-05T00:30:43.631Z,7.18
2022-10-05T00:33:46.869Z,7.12
2022-10-05T00:36:49.626Z,7.29
2022-10-05T00:39:52.596Z,7.18
2022-10-05T00:43:10.175Z,7.25
2022-10-05T00:46:21.241Z,7.26
2022-10-05T00:49:51.351Z,7.18
2022-10-05T00:52:56.475Z,7.20
2022-10-05T00:55:58.659Z,7.32
2022-10-05T00:59:09.853Z,7.19
2022-10-05T01:02:23.065Z,7.19
2022-10-05T01:05:39.894Z,7.15
2022-10-05T01:08:48.356Z,7.02
2022-10-05T01:12:00.251Z,6.96
2022-10-05T01:15:12.527Z,7.18
2022-10-05T01:18:46.909Z,7.11
2022-10-05T01:22:05.461Z,7.09
2022-10-05T01:25:38.344Z,7.16
2022-10-05T01:28:55.888Z,7.11
2022-10-05T01:32:45.975Z,6.98
2022-10-05T01:36:11.960Z,6.82
2022-10-05T01:39:19.883Z,6.87
2022-10-05T01:42:30.286Z,6.92
2022-10-05T01:45:32.450Z,6.91
2022-10-05T01:48:52.644Z,6.94
2022-10-05T01:52:22.922Z,6.89
2022-10-05T01:55:37.649Z,6.91
2022-10-05T01:58:51.727Z,7.19
2022-10-05T02:02:00.287Z,7.12
2022-10-05T02:05:16.887Z,6.96
2022-10-05T02:08:29.391Z,6.94
2022-10-05T02:11:32.958Z,6.98
2022-10-05T02:14:44.336Z,6.99
2022-10-05T02:17:50.379Z,7.09
2022-10-05T02:20:57.205Z,7.03
2022-10-05T02:24:07.013Z,6.98
2022-10-05T02:27:11.293Z,6.98
2022-10-05T02:30:16.912Z,6.91
2022-10-05T02:33:29.100Z,6.87
2022-10-05T02:36:36.401Z,6.92
2022-10-05T02:40:04.789Z,6.81
2022-10-05T02:43:38.994Z,6.84
2022-10-05T02:46:56.043Z,6.87
2022-10-05T02:50:27.330Z,6.82
2022-10-05T02:53:30.669Z,6.80
2022-10-05T02:57:21.145Z,6.85
2022-10-05T03:00:30.352Z,7.05
2022-10-05T03:03:51.876Z,7.01
2022-10-05T03:07:15.085Z,6.94
2022-10-05T03:10:42.384Z,6.91
2022-10-05T03:14:14.209Z,6.77
2022-10-05T03:17:22.350Z,6.72
2022-10-05T03:20:41.893Z,6.68
2022-10-05T03:24:18.304Z,6.77
2022-10-05T03:27:33.586Z,6.65
2022-10-05T03:30:59.918Z,6.55
2022-10-05T03:34:11.519Z,6.57
2022-10-05T03:37:42.244Z,6.58
2022-10-05T03:40:53.837Z,6.75
2022-10-05T03:43:59.322Z,6.91
2022-10-05T03:47:11.482Z,6.98
2022-10-05T03:50:32.287Z,6.78
2022-10-05T03:53:47.327Z,6.81
2022-10-05T03:56:57.100Z,6.64
2022-10-05T04:00:14.832Z,6.55
2022-10-05T04:03:30.232Z,6.50
2022-10-05T04:06:46.083Z,6.44
2022-10-05T04:09:53.075Z,6.51
2022-10-05T04:13:04.787Z,6.50
2022-10-05T04:16:41.904Z,6.45
2022-10-05T04:19:52.970Z,6.37
2022-10-05T04:23:07.889Z,6.47
2022-10-05T04:26:15.608Z,6.48
2022-10-05T04:29:36.173Z,6.61
2022-10-05T04:33:12.661Z,6.75
2022-10-05T04:36:21.524Z,6.74
2022-10-05T04:39:42.628Z,6.54
2022-10-05T04:43:10.394Z,6.47
2022-10-05T04:46:19.090Z,6.44
2022-10-05T04:49:34.202Z,6.50
2022-10-05T04:53:30.567Z,6.51
2022-10-05T04:56:38.756Z,6.63
2022-10-05T04:59:41.689Z,6.60
2022-10-05T05:02:55.717Z,6.68
2022-10-05T05:06:17.215Z,6.85
2022-10-05T05:09:44.585Z,6.84
2022-10-05T05:13:08.443Z,6.91
2022-10-05T05:16:16.203Z,6.89
2022-10-05T05:19:37.533Z,7.08
2022-10-05T05:22:52.213Z,7.29
2022-10-05T05:26:00.339Z,7.49
2022-10-05T05:29:14.617Z,7.75
2022-10-05T05:32:27.213Z,8.44
2022-10-05T05:35:36.476Z,8.53
2022-10-05T05:39:01.705Z,9.13
2022-10-05T05:42:21.325Z,9.59
2022-10-05T05:45:45.218Z,10.26
2022-10-05T05:48:51.768Z,10.64
2022-10-05T05:52:05.100Z,10.77
2022-10-05T05:55:25.381Z,11.07
2022-10-05T05:58:38.767Z,11.40
2022-10-05T06:01:54.051Z,11.82
2022-10-05T06:05:31.757Z,12.10
2022-10-05T06:08:41.833Z,12.92
2022-10-05T06:12:09.676Z,13.73
2022-10-05T06:15:49.498Z,14.00
2022-10-05T06:19:04.900Z,14.12
2022-10-05T06:22:12.230Z,14.37
2022-10-05T06:25:15.604Z,14.49
2022-10-05T06:28:20.514Z,14.57
2022-10-05T06:31:58.866Z,14.73
2022-10-05T06:35:18.129Z,14.88
2022-10-05T06:38:46.402Z,15.04
2022-10-05T06:42:08.113Z,15.69
2022-10-05T06:45:59.206Z,15.69
2022-10-05T06:49:31.217Z,16.44
2022-10-05T06:53:05.383Z,17.09
2022-10-05T06:56:28.152Z,17.22
2022-10-05T06:59:43.240Z,17.76
2022-10-05T07:02:58.833Z,18.28
2022-10-05T07:06:29.644Z,18.30
2022-10-05T07:09:39.418Z,18.72
2022-10-05T07:13:07.164Z,19.16
2022-10-05T07:16:09.483Z,18.88
2022-10-05T07:19:37.035Z,19.16
2022-10-05T07:22:57.628Z,17.97
2022-10-05T07:26:02.490Z,16.77
2022-10-05T07:29:21.661Z,16.33
2022-10-05T07:32:39.773Z,15.78
2022-10-05T07:36:29.960Z,16.21
2022-10-05T07:40:00.847Z,15.79
2022-10-05T07:43:21.804Z,15.25
2022-10-05T07:46:35.409Z,14.97
2022-10-05T07:49:56.549Z,14.69
2022-10-05T07:53:06.427Z,14.73
2022-10-05T07:56:21.051Z,14.93
2022-10-05T07:59:30.360Z,14.91
2022-10-05T08:02:46.092Z,14.83
2022-10-05T08:05:48.638Z,14.97
2022-10-05T08:09:02.232Z,15.21
2022-10-05T08:12:11.691Z,15.38
2022-10-05T08:15:24.112Z,15.48
2022-10-05T08:18:43.063Z,15.45
2022-10-05T08:21:55.260Z,15.52
2022-10-05T08:25:09.931Z,15.68
2022-10-05T08:28:40.005Z,16.31
2022-10-05T08:31:47.334Z,17.14
2022-10-05T08:34:59.351Z,18.05
2022-10-05T08:38:15.421Z,17.76
2022-10-05T08:41:22.804Z,18.15
2022-10-05T08:44:52.945Z,19.30
2022-10-05T08:48:05.096Z,19.85
2022-10-05T08:51:49.134Z,21.18
2022-10-05T08:55:10.081Z,21.75
2022-10-05T08:58:42.227Z,22.53
2022-10-05T09:01:53.277Z,21.90
2022-10-05T09:05:23.565Z,22.12
2022-10-05T09:08:39.127Z,20.04
2022-10-05T09:11:52.851Z,19.77
2022-10-05T09:15:26.319Z,19.19
2022-10-05T09:18:29.144Z,19.57
2022-10-05T09:22:15.185Z,19.31
2022-10-05T09:25:33.634Z,18.71
2022-10-05T09:29:09.404Z,18.82
2022-10-05T09:32:27.928Z,18.53
2022-10-05T09:36:07.489Z,18.14
2022-10-05T09:39:24.982Z,17.59
2022-10-05T09:42:45.512Z,17.47
2022-10-05T09:46:08.740Z,17.57
2022-10-05T09:49:25.419Z,17.69
2022-10-05T09:52:56.568Z,17.63
2022-10-05T09:56:30.533Z,17.97
2022-10-05T09:59:44.529Z,18.72
2022-10-05T10:02:55.902Z,19.88
2022-10-05T10:06:43.330Z,19.34
2022-10-05T10:10:06.741Z,19.33
2022-10-05T10:13:32.900Z,20.11
2022-10-05T10:16:53.674Z,19.57
2022-10-05T10:20:05.667Z,20.21
2022-10-05T10:23:16.326Z,21.69
2022-10-05T10:26:32.150Z,22.56
2022-10-05T10:29:49.496Z,22.98
2022-10-05T10:33:23.146Z,23.63
2022-10-05T10:36:40.246Z,23.41
2022-10-05T10:39:55.978Z,23.46
2022-10-05T10:43:11.487Z,24.65
2022-10-05T10:46:44.850Z,25.68
2022-10-05T10:49:51.575Z,26.09
2022-10-05T10:53:31.442Z,26.26
2022-10-05T10:56:58.532Z,26.33
2022-10-05T11:00:48.736Z,26.29
2022-10-05T11:04:40.472Z,27.13
2022-10-05T11:07:48.308Z,27.04
2022-10-05T11:11:24.123Z,27.40
2022-10-05T11:14:47.587Z,26.79
2022-10-05T11:18:04.783Z,28.12
2022-10-05T11:21:07.169Z,28.09
2022-10-05T11:24:38.985Z,26.62
2022-10-05T11:28:05.920Z,27.88
2022-10-05T11:31:42.867Z,27.59
2022-10-05T11:35:15.141Z,26.91
2022-10-05T11:38:50.556Z,25.43
2022-10-05T11:41:52.707Z,27.44
2022-10-05T11:45:19.167Z,26.14
2022-10-05T11:48:47.513Z,28.60
2022-10-05T11:51:49.906Z,29.79
2022-10-05T11:55:16.157Z,29.32
2022-10-05T11:58:46.459Z,27.88
2022-10-05T12:02:18.011Z,27.33
2022-10-05T12:05:49.807Z,28.88
2022-10-05T12:09:11.360Z,28.36
2022-10-05T12:12:27.067Z,27.13
2022-10-05T12:15:47.656Z,27.93
2022-10-05T12:19:21.988Z,28.87
2022-10-05T12:22:30.112Z,28.88
2022-10-05T12:25:48.280Z,28.87
2022-10-05T12:28:55.576Z,26.78
2022-10-05T12:31:57.733Z,27.33
2022-10-05T12:35:47.838Z,27.00
2022-10-05T12:39:04.964Z,25.70
2022-10-05T12:42:19.923Z,24.24
2022-10-05T12:45:52.602Z,23.81
2022-10-05T12:49:09.121Z,22.47
2022-10-05T12:52:23.701Z,22.39
2022-10-05T12:55:31.200Z,24.89
2022-10-05T12:59:16.591Z,25.24
2022-10-05T13:02:25.167Z,25.47
2022-10-05T13:05:35.831Z,26.33
2022-10-05T13:09:14.997Z,25.68
2022-10-05T13:12:35.375Z,26.02
2022-10-05T13:16:15.332Z,27.29
2022-10-05T13:19:20.616Z,26.86
2022-10-05T13:22:31.704Z,27.81
2022-10-05T13:25:59.647Z,26.73
2022-10-05T13:29:33.135Z,26.29
2022-10-05T13:32:40.262Z,25.31
2022-10-05T13:35:56.442Z,23.49
2022-10-05T13:39:21.972Z,22.77
2022-10-05T13:42:37.892Z,22.33
2022-10-05T13:45:56.853Z,22.50
2022-10-05T13:49:32.036Z,22.95
2022-10-05T13:52:57.996Z,23.26
2022-10-05T13:56:13.462Z,23.70
2022-10-05T13:59:20.196Z,23.74
2022-10-05T14:02:38.436Z,23.47
2022-10-05T14:05:55.877Z,23.53
2022-10-05T14:08:59.896Z,24.22
2022-10-05T14:12:04.935Z,25.00
2022-10-05T14:15:30.025Z,24.41
2022-10-05T14:18:36.270Z,24.89
2022-10-05T14:21:53.823Z,25.70
2022-10-05T14:25:02.984Z,25.98
2022-10-05T14:28:29.510Z,26.05
2022-10-05T14:31:35.867Z,25.81
2022-10-05T14:34:42.323Z,25.70
2022-10-05T14:37:58.118Z,26.08
2022-10-05T14:41:14.760Z,25.30
2022-10-05T14:44:29.802Z,25.10
2022-10-05T14:47:32.275Z,25.50
2022-10-05T14:50:48.113Z,25.61
2022-10-05T14:54:18.751Z,25.23
2022-10-05T14:57:41.151Z,23.93
2022-10-05T15:00:56.920Z,23.12
2022-10-05T15:04:08.219Z,23.12
2022-10-05T15:07:23.530Z,22.64
2022-10-05T15:10:37.804Z,21.34
2022-10-05T15:13:47.479Z,21.12
2022-10-05T15:16:52.876Z,20.91
2022-10-05T15:20:33.888Z,20.40
2022-10-05T15:23:43.005Z,19.99
2022-10-05T15:27:02.099Z,19.70
2022-10-05T15:30:15.366Z,19.65
2022-10-05T15:33:59.651Z,19.23
2022-10-05T15:37:42.837Z,19.02
2022-10-05T15:40:54.837Z,18.81
2022-10-05T15:44:20.401Z,18.58
2022-10-05T15:47:28.011Z,18.34
2022-10-05T15:50:37.378Z,17.97
2022-10-05T15:53:46.556Z,17.69
2022-10-05T15:57:02.004Z,17.45
2022-10-05T16:00:18.782Z,16.94
2022-10-05T16:03:21.552Z,16.75
2022-10-05T16:06:57.629Z,16.57
2022-10-05T16:10:13.293Z,16.53
2022-10-05T16:13:29.479Z,16.57
2022-10-05T16:16:50.085Z,16.40
2022-10-05T16:20:29.696Z,16.36
2022-10-05T16:24:10.658Z,16.12
2022-10-05T16:27:20.631Z,15.93
2022-10-05T16:30:24.344Z,15.82
2022-10-05T16:33:45.992Z,15.78
2022-10-05T16:37:18.380Z,15.65
2022-10-05T16:40:31.127Z,15.55
2022-10-05T16:43:51.238Z,15.57
2022-10-05T16:47:04.217Z,15.48
2022-10-05T16:50:30.205Z,15.32
2022-10-05T16:53:42.191Z,15.23
2022-10-05T16:56:56.302Z,15.18
2022-10-05T17:00:15.530Z,15.07
2022-10-05T17:03:34.196Z,14.93
2022-10-05T17:06:48.090Z,14.37
2022-10-05T17:09:52.926Z,14.37
2022-10-05T17:13:19.894Z,14.37
2022-10-05T17:16:58.945Z,14.18
2022-10-05T17:20:40.248Z,14.00
2022-10-05T17:24:05.584Z,13.94
2022-10-05T17:27:17.756Z,13.92
2022-10-05T17:30:58.685Z,13.77
2022-10-05T17:34:13.093Z,13.82
2022-10-05T17:38:05.394Z,13.81
2022-10-05T17:41:29.542Z,13.60
2022-10-05T17:44:31.805Z,13.63
2022-10-05T17:47:55.532Z,13.70
2022-10-05T17:51:16.424Z,13.71
2022-10-05T17:54:36.908Z,13.81
2022-10-05T17:57:39.696Z,13.89
2022-10-05T18:01:04.703Z,13.89
2022-10-05T18:04:12.687Z,13.91
2022-10-05T18:07:19.611Z,13.92
2022-10-05T18:10:24.557Z,13.86
2022-10-05T18:13:41.604Z,13.74
2022-10-05T18:17:02.664Z,13.70
2022-10-05T18:20:27.066Z,13.54
2022-10-05T18:23:35.877Z,13.42
2022-10-05T18:26:49.409Z,13.36
2022-10-05T18:30:12.191Z,13.42
2022-10-05T18:33:33.047Z,12.91
2022-10-05T18:36:55.200Z,12.44
2022-10-05T18:40:03.185Z,12.75
2022-10-05T18:43:26.690Z,12.91
2022-10-05T18:51:08.852Z,12.93
2022-10-05T18:54:31.291Z,12.96
2022-10-05T18:58:02.285Z,12.82
2022-10-05T19:01:23.368Z,12.61
2022-10-05T19:04:35.688Z,12.65
2022-10-05T19:07:50.509Z,12.66
2022-10-05T19:10:59.674Z,12.62
2022-10-05T19:14:10.724Z,12.54
2022-10-05T19:17:54.752Z,12.52
2022-10-05T19:21:17.965Z,12.59
2022-10-05T19:24:26.996Z,12.42
2022-10-05T19:28:11.034Z,12.51
2022-10-05T19:31:52.377Z,12.46
2022-10-05T19:35:13.216Z,12.44
2022-10-05T19:38:31.743Z,12.41
2022-10-05T19:41:50.596Z,12.24
2022-10-05T19:45:16.010Z,12.13
2022-10-05T19:48:40.748Z,11.93
2022-10-05T19:51:51.424Z,11.97
2022-10-05T19:55:04.669Z,11.93
2022-10-05T19:58:27.016Z,11.98
2022-10-05T20:01:36.922Z,11.90
2022-10-05T20:04:44.684Z,11.87
2022-10-05T20:07:46.896Z,11.84
2022-10-05T20:11:10.983Z,11.86
2022-10-05T20:14:13.837Z,11.63
2022-10-05T20:17:52.301Z,11.60
2022-10-05T20:20:55.350Z,11.56
2022-10-05T20:24:13.943Z,11.56
2022-10-05T20:27:35.820Z,11.32
2022-10-05T20:30:38.022Z,11.35
2022-10-05T20:33:40.507Z,11.32
2022-10-05T20:36:44.551Z,11.36
2022-10-05T20:39:47.955Z,11.31
2022-10-05T20:42:51.631Z,11.31
2022-10-05T20:45:53.850Z,11.39
2022-10-05T20:48:56.085Z,11.36
2022-10-05T20:51:59.093Z,11.33
2022-10-05T20:55:01.824Z,11.33
2022-10-05T20:58:04.097Z,11.43
2022-10-05T21:01:15.516Z,11.46
2022-10-05T21:04:23.577Z,11.50
2022-10-05T21:07:25.813Z,11.43
2022-10-05T21:10:27.944Z,11.46
2022-10-05T21:13:30.144Z,11.44
2022-10-05T21:16:34.054Z,11.42
2022-10-05T21:19:40.500Z,11.29
2022-10-05T21:22:42.743Z,11.15
2022-10-05T21:25:45.523Z,11.23
2022-10-05T21:28:47.779Z,11.16
2022-10-05T21:31:50.044Z,11.05
2022-10-05T21:34:52.270Z,11.05
2022-10-05T21:37:54.515Z,11.12
2022-10-05T21:40:56.648Z,11.18
2022-10-05T21:43:58.920Z,11.21
2022-10-05T21:47:06.964Z,11.02
2022-10-05T21:50:10.296Z,11.01
2022-10-05T21:53:15.920Z,10.88
2022-10-05T21:56:21.299Z,10.87
2022-10-05T21:59:28.453Z,10.87
2022-10-05T22:02:30.699Z,10.82
2022-10-05T22:05:32.948Z,10.88
2022-10-05T22:08:35.451Z,10.81
2022-10-05T22:11:38.320Z,10.84
2022-10-05T22:14:40.530Z,10.95
2022-10-05T22:17:43.145Z,10.87
2022-10-05T22:20:46.163Z,10.81
2022-10-05T22:23:48.799Z,10.74
2022-10-05T22:26:51.617Z,10.63
2022-10-05T22:29:55.355Z,10.67
2022-10-05T22:32:57.552Z,10.56
2022-10-05T22:36:00.376Z,10.60
2022-10-05T22:39:02.793Z,10.53
2022-10-05T22:42:05.827Z,10.41
2022-10-05T22:45:10.893Z,10.37
2022-10-05T22:48:13.140Z,10.26
2022-10-05T22:51:15.808Z,10.16
2022-10-05T22:54:18.320Z,10.24
2022-10-05T22:57:20.564Z,10.14
2022-10-05T23:00:35.191Z,10.12
2022-10-05T23:03:45.837Z,10.12
2022-10-05T23:06:48.036Z,10.17
2022-10-05T23:09:50.218Z,10.23
2022-10-05T23:13:01.072Z,10.12
2022-10-05T23:16:13.270Z,10.24
2022-10-05T23:19:15.780Z,10.14
2022-10-05T23:22:18.016Z,10.23
2022-10-05T23:25:22.137Z,10.24
2022-10-05T23:28:24.713Z,10.21
2022-10-05T23:31:30.272Z,10.05
2022-10-05T23:34:32.451Z,10.02
2022-10-05T23:37:43.158Z,9.98
2022-10-05T23:40:47.431Z,10.00
2022-10-05T23:43:49.751Z,10.08
2022-10-05T23:46:51.944Z,9.93
2022-10-05T23:49:55.411Z,9.79
2022-10-05T23:52:57.604Z,9.62
2022-10-05T23:55:59.841Z,9.59
2022-10-05T23:59:02.112Z,9.65
